Time;durP1;ratioP1;P1;durP2;ratioP2;P2;SDS_P1;SDS_P2;PMS_P1;PMS_P2;Temp;Humidity;BMP_temperature;BMP_pressure;BME280_temperature;BME280_humidity;BME280_pressure;Samples;Min_cycle;Max_cycle;Signal;HPM_P1;HPM_P2
2023/10/18 00:01:28;;;;;;;8.47;7.70;;;2.00;99.90;;;;;;5116983;27;20537;-78
2023/10/18 00:03:56;;;;;;;10.50;8.87;;;2.00;99.90;;;;;;5108850;27;20514;-78
2023/10/18 00:06:23;;;;;;;11.10;9.10;;;1.90;99.90;;;;;;5111074;27;20441;-78
2023/10/18 00:08:57;;;;;;;8.50;7.47;;;1.80;99.90;;;;;;5115568;27;20461;-77
2023/10/18 00:11:26;;;;;;;13.60;9.03;;;1.80;99.90;;;;;;5113864;27;20477;-77
2023/10/18 00:13:54;;;;;;;11.03;8.47;;;1.70;99.90;;;;;;5117278;27;20481;-77
2023/10/18 00:16:22;;;;;;;12.27;10.10;;;1.80;99.90;;;;;;5117179;27;20979;-78
2023/10/18 00:18:49;;;;;;;23.77;10.27;;;1.80;99.90;;;;;;5128141;27;20776;-78
2023/10/18 00:21:16;;;;;;;14.00;8.27;;;1.80;99.90;;;;;;5110529;27;20490;-78
2023/10/18 00:23:44;;;;;;;24.47;11.13;;;1.70;99.90;;;;;;5112067;27;20448;-78
2023/10/18 00:26:12;;;;;;;112.63;23.20;;;1.70;99.90;;;;;;5109723;27;20453;-78
2023/10/18 00:28:40;;;;;;;45.20;13.00;;;1.70;99.90;;;;;;5114925;27;20456;-78
2023/10/18 00:31:16;;;;;;;21.43;10.03;;;1.70;99.90;;;;;;5115184;27;20434;-78
2023/10/18 00:33:44;;;;;;;39.00;12.83;;;1.70;99.90;;;;;;5107448;27;20441;-78
2023/10/18 00:36:11;;;;;;;6.37;5.70;;;1.70;99.90;;;;;;5107710;27;20465;-77
2023/10/18 00:38:39;;;;;;;10.67;7.50;;;1.60;99.90;;;;;;5130903;27;20445;-77
2023/10/18 00:41:09;;;;;;;7.63;6.83;;;1.60;99.90;;;;;;5107728;27;20529;-77
2023/10/18 00:43:38;;;;;;;8.03;7.20;;;1.80;99.90;;;;;;5107850;27;20454;-78
2023/10/18 00:46:07;;;;;;;11.00;7.27;;;2.00;99.90;;;;;;5110974;27;20698;-78
2023/10/18 00:48:35;;;;;;;6.00;5.50;;;2.00;99.90;;;;;;5106978;27;20461;-78
2023/10/18 00:51:03;;;;;;;7.27;6.47;;;2.10;99.90;;;;;;5126830;27;20561;-78
2023/10/18 00:53:31;;;;;;;8.33;6.97;;;2.10;99.90;;;;;;5108469;27;20522;-78
2023/10/18 00:56:00;;;;;;;8.37;6.37;;;2.00;99.90;;;;;;5126676;27;20521;-78
2023/10/18 00:58:29;;;;;;;6.60;5.83;;;2.10;99.90;;;;;;5128728;27;20575;-78
2023/10/18 01:00:57;;;;;;;10.50;6.77;;;2.10;99.90;;;;;;5110714;27;20808;-79
2023/10/18 01:03:32;;;;;;;8.10;6.93;;;2.10;99.90;;;;;;5106387;27;20516;-78
2023/10/18 01:06:04;;;;;;;8.93;7.40;;;2.00;99.90;;;;;;5114617;27;20878;-78
2023/10/18 01:08:32;;;;;;;8.80;6.70;;;1.90;99.90;;;;;;5109167;27;20580;-78
2023/10/18 01:11:04;;;;;;;6.57;5.93;;;2.10;99.90;;;;;;5117921;27;20493;-79
2023/10/18 01:13:31;;;;;;;6.13;5.50;;;2.10;99.90;;;;;;5106089;27;20442;-78
2023/10/18 01:15:59;;;;;;;6.00;5.40;;;2.00;99.90;;;;;;5119757;27;20458;-78
2023/10/18 01:18:27;;;;;;;8.03;5.90;;;2.10;99.90;;;;;;5114833;27;20496;-78
2023/10/18 01:20:56;;;;;;;8.43;6.40;;;2.00;99.90;;;;;;5111418;27;20967;-78
2023/10/18 01:23:23;;;;;;;10.07;6.57;;;2.00;99.90;;;;;;5119249;27;20453;-78
2023/10/18 01:25:51;;;;;;;7.33;6.63;;;2.00;99.90;;;;;;5107854;27;20533;-78
2023/10/18 01:28:18;;;;;;;8.10;6.77;;;1.90;99.90;;;;;;5114602;27;20519;-78
2023/10/18 01:30:45;;;;;;;10.37;8.00;;;1.70;99.90;;;;;;5109751;27;20968;-78
2023/10/18 01:33:14;;;;;;;7.00;6.30;;;1.50;99.90;;;;;;5110091;27;20492;-78
2023/10/18 01:35:50;;;;;;;7.93;7.13;;;1.40;99.90;;;;;;5114686;27;20446;-78
2023/10/18 01:38:19;;;;;;;6.73;5.90;;;1.20;99.90;;;;;;5107949;27;20491;-78
2023/10/18 01:40:53;;;;;;;8.50;6.70;;;1.00;99.90;;;;;;5112308;27;20529;-78
2023/10/18 01:43:22;;;;;;;6.50;5.90;;;0.80;99.90;;;;;;5104998;27;20445;-77
2023/10/18 01:45:49;;;;;;;11.27;5.87;;;0.90;99.90;;;;;;5110067;27;20465;-78
2023/10/18 01:48:18;;;;;;;18.83;8.60;;;1.10;99.90;;;;;;5108379;27;20538;-78
2023/10/18 01:50:46;;;;;;;28.57;10.07;;;1.10;99.90;;;;;;5109838;27;20853;-78
2023/10/18 01:53:16;;;;;;;32.87;11.23;;;1.00;99.90;;;;;;5111775;27;20796;-78
2023/10/18 01:55:46;;;;;;;20.33;8.87;;;0.90;99.90;;;;;;5106934;27;20549;-77
2023/10/18 01:58:15;;;;;;;20.07;7.80;;;0.90;99.90;;;;;;5108040;27;20486;-78
2023/10/18 02:00:44;;;;;;;12.03;7.30;;;0.90;99.90;;;;;;5105174;27;20456;-78
2023/10/18 02:03:12;;;;;;;16.27;7.57;;;0.70;99.90;;;;;;5108716;27;20469;-77
2023/10/18 02:05:42;;;;;;;8.27;6.57;;;0.70;99.90;;;;;;5103895;27;20468;-78
2023/10/18 02:08:09;;;;;;;18.00;7.40;;;0.70;99.90;;;;;;5113371;27;20507;-78
2023/10/18 02:10:35;;;;;;;9.27;6.30;;;0.50;99.90;;;;;;5104437;27;20549;-78
2023/10/18 02:13:05;;;;;;;6.30;5.70;;;0.40;99.90;;;;;;5109318;27;20631;-78
2023/10/18 02:15:33;;;;;;;8.13;5.80;;;0.60;99.90;;;;;;5106619;27;20452;-78
2023/10/18 02:18:02;;;;;;;9.27;7.50;;;0.70;99.90;;;;;;5110110;27;20754;-78
2023/10/18 02:20:29;;;;;;;7.53;5.83;;;0.90;99.90;;;;;;5108643;27;20465;-78
2023/10/18 02:22:59;;;;;;;12.10;7.43;;;1.00;99.90;;;;;;5118822;27;20456;-78
2023/10/18 02:25:42;;;;;;;10.07;6.73;;;1.10;99.90;;;;;;5109428;27;20476;-77
2023/10/18 02:28:22;;;;;;;7.90;6.20;;;1.20;99.90;;;;;;5113659;27;20446;-78
2023/10/18 02:30:57;;;;;;;6.93;6.23;;;1.10;99.90;;;;;;5107287;27;20457;-78
2023/10/18 02:33:26;;;;;;;6.43;5.83;;;1.10;99.90;;;;;;5106036;27;20482;-78
2023/10/18 02:35:57;;;;;;;7.27;5.87;;;1.10;99.90;;;;;;5110827;27;20472;-78
2023/10/18 02:38:26;;;;;;;6.63;5.60;;;1.20;99.90;;;;;;5112976;27;20977;-78
2023/10/18 02:40:56;;;;;;;6.57;5.83;;;1.20;99.90;;;;;;5114234;27;20476;-78
2023/10/18 02:43:24;;;;;;;7.83;5.90;;;1.10;99.90;;;;;;5115750;27;20545;-78
2023/10/18 02:45:52;;;;;;;7.57;6.80;;;1.10;99.90;;;;;;5118489;27;20783;-78
2023/10/18 02:48:24;;;;;;;4.80;4.40;;;1.00;99.90;;;;;;5103121;27;20541;-79
2023/10/18 02:50:54;;;;;;;7.27;6.57;;;0.90;99.90;;;;;;5119054;27;20464;-78
2023/10/18 02:53:21;;;;;;;5.27;4.83;;;1.00;99.90;;;;;;5111750;27;20924;-78
2023/10/18 02:55:55;;;;;;;8.23;7.43;;;0.90;99.90;;;;;;5104977;27;20538;-78
2023/10/18 02:58:27;;;;;;;6.90;5.93;;;1.00;99.90;;;;;;5112491;27;20482;-78
2023/10/18 03:01:02;;;;;;;7.03;6.30;;;1.20;99.90;;;;;;5112638;27;20444;-78
2023/10/18 03:03:30;;;;;;;6.43;5.80;;;1.10;99.90;;;;;;5104284;27;20455;-78
2023/10/18 03:06:01;;;;;;;6.57;5.87;;;1.00;99.90;;;;;;5114535;27;20561;-78
2023/10/18 03:08:28;;;;;;;9.10;7.40;;;0.90;99.90;;;;;;5107883;27;20461;-78
2023/10/18 03:10:55;;;;;;;6.17;5.50;;;0.90;99.90;;;;;;5113347;27;20471;-78
2023/10/18 03:13:23;;;;;;;7.00;6.30;;;0.90;99.90;;;;;;5110621;27;20523;-79
2023/10/18 03:16:15;;;;;;;7.80;6.57;;;0.90;99.90;;;;;;5113794;27;20824;-78
2023/10/18 03:18:43;;;;;;;7.30;6.70;;;1.00;99.90;;;;;;5106281;27;20773;-78
2023/10/18 03:21:20;;;;;;;7.73;6.07;;;1.10;99.90;;;;;;5110382;27;20493;-77
2023/10/18 03:23:50;;;;;;;6.47;5.80;;;1.10;99.90;;;;;;5110494;27;20460;-78
2023/10/18 03:26:21;;;;;;;6.50;5.67;;;1.00;99.90;;;;;;5104784;27;20470;-78
2023/10/18 03:28:50;;;;;;;6.80;5.00;;;0.90;99.90;;;;;;5124587;27;20456;-78
2023/10/18 03:31:27;;;;;;;11.53;6.80;;;1.00;99.90;;;;;;5120843;27;20580;-78
2023/10/18 03:33:59;;;;;;;5.73;5.13;;;1.00;99.90;;;;;;5104431;27;20839;-77
2023/10/18 03:36:26;;;;;;;6.83;6.10;;;1.00;99.90;;;;;;5107862;27;20445;-77
2023/10/18 03:39:00;;;;;;;6.53;5.83;;;0.80;99.90;;;;;;5124295;27;20496;-78
2023/10/18 03:41:33;;;;;;;7.60;6.80;;;0.60;99.90;;;;;;5114558;27;20468;-79
2023/10/18 03:44:06;;;;;;;7.10;6.10;;;0.60;99.90;;;;;;5107117;27;20442;-78
2023/10/18 03:46:47;;;;;;;6.93;6.20;;;0.50;99.90;;;;;;5104144;27;20454;-78
2023/10/18 03:49:30;;;;;;;9.50;6.33;;;0.50;99.90;;;;;;5111051;27;20456;-78
2023/10/18 03:52:02;;;;;;;9.77;6.97;;;0.80;99.90;;;;;;5128313;27;20440;-78
2023/10/18 03:54:43;;;;;;;11.40;8.10;;;0.90;99.90;;;;;;5106307;27;20914;-79
2023/10/18 03:57:15;;;;;;;9.47;7.50;;;0.90;99.90;;;;;;5112328;27;20793;-79
2023/10/18 03:59:45;;;;;;;9.30;6.17;;;0.90;99.90;;;;;;5105487;27;20460;-78
2023/10/18 04:02:20;;;;;;;12.63;8.50;;;0.90;99.90;;;;;;5112512;27;20454;-78
2023/10/18 04:04:48;;;;;;;9.13;7.90;;;1.00;99.90;;;;;;5111344;27;20469;-78
2023/10/18 04:07:19;;;;;;;11.57;8.40;;;1.10;99.90;;;;;;5103687;27;20472;-78
2023/10/18 04:09:53;;;;;;;10.10;9.10;;;1.10;99.90;;;;;;5110755;27;20446;-79
2023/10/18 04:12:22;;;;;;;10.17;6.83;;;1.20;99.90;;;;;;5107039;27;20470;-79
2023/10/18 04:14:53;;;;;;;14.03;9.80;;;1.20;99.90;;;;;;5104462;27;20959;-79
2023/10/18 04:17:32;;;;;;;10.33;8.60;;;1.20;99.90;;;;;;5116747;27;20459;-79
2023/10/18 04:20:01;;;;;;;14.40;8.70;;;1.20;99.90;;;;;;5107021;27;20448;-79
2023/10/18 04:22:29;;;;;;;13.10;8.03;;;1.30;99.90;;;;;;5111044;27;20869;-79
2023/10/18 04:24:56;;;;;;;14.70;9.07;;;1.20;99.90;;;;;;5108032;27;20686;-78
2023/10/18 04:27:23;;;;;;;11.70;8.70;;;1.30;99.90;;;;;;5117901;27;20464;-78
2023/10/18 04:29:55;;;;;;;14.33;9.97;;;1.30;99.90;;;;;;5117860;27;20442;-78
2023/10/18 04:32:24;;;;;;;13.10;9.47;;;1.30;99.90;;;;;;5114173;27;20499;-78
2023/10/18 04:34:51;;;;;;;11.43;8.97;;;1.40;99.90;;;;;;5122258;27;20461;-77
2023/10/18 04:37:22;;;;;;;11.93;8.53;;;1.40;99.90;;;;;;5115361;27;20440;-78
2023/10/18 04:39:49;;;;;;;15.47;11.50;;;1.40;99.90;;;;;;5106844;27;20437;-79
2023/10/18 04:42:17;;;;;;;11.40;9.93;;;1.40;99.90;;;;;;5120361;27;20464;-79
2023/10/18 04:44:48;;;;;;;11.77;9.20;;;1.30;99.90;;;;;;5108741;27;20848;-78
2023/10/18 04:47:18;;;;;;;10.40;7.93;;;1.20;99.90;;;;;;5123534;27;20523;-78
2023/10/18 04:50:00;;;;;;;10.73;7.80;;;1.20;99.90;;;;;;5106789;27;20559;-78
2023/10/18 04:52:40;;;;;;;16.73;9.60;;;1.10;99.90;;;;;;5105607;27;20868;-78
2023/10/18 04:55:11;;;;;;;12.00;9.10;;;1.10;99.90;;;;;;5107442;27;20532;-79
2023/10/18 04:57:39;;;;;;;9.97;7.23;;;1.00;99.90;;;;;;5119035;27;20909;-79
2023/10/18 05:00:12;;;;;;;11.90;9.00;;;1.00;99.90;;;;;;5116965;27;20546;-79
2023/10/18 05:02:45;;;;;;;12.20;9.00;;;1.10;99.90;;;;;;5118209;27;20532;-79
2023/10/18 05:05:13;;;;;;;14.93;10.60;;;1.20;99.90;;;;;;5107461;27;20448;-79
2023/10/18 05:07:42;;;;;;;14.03;9.50;;;1.20;99.90;;;;;;5105259;27;20458;-79
2023/10/18 05:10:14;;;;;;;12.63;9.30;;;1.20;99.90;;;;;;5111800;27;20456;-78
2023/10/18 05:12:47;;;;;;;15.13;9.60;;;1.20;99.90;;;;;;5110980;27;20532;-78
2023/10/18 05:15:21;;;;;;;12.67;9.47;;;1.30;99.90;;;;;;5111670;27;20535;-78
2023/10/18 05:17:50;;;;;;;11.27;9.77;;;1.30;99.90;;;;;;5120061;27;20544;-78
2023/10/18 05:20:25;;;;;;;14.90;9.40;;;1.30;99.90;;;;;;5104422;27;20465;-81
2023/10/18 05:22:53;;;;;;;13.67;10.50;;;1.30;99.90;;;;;;5106997;27;20460;-80
2023/10/18 05:25:29;;;;;;;11.13;7.97;;;1.30;99.90;;;;;;5106022;27;20507;-80
2023/10/18 05:28:09;;;;;;;11.77;8.90;;;1.40;99.90;;;;;;5117212;27;20565;-80
2023/10/18 05:33:47;;;;;;;14.40;10.07;;;1.40;99.90;;;;;;5111478;27;20464;-80
2023/10/18 05:36:34;;;;;;;12.13;9.60;;;1.30;99.90;;;;;;5111153;27;20841;-80
2023/10/18 05:39:27;;;;;;;13.90;9.30;;;1.40;99.90;;;;;;5120675;27;20480;-80
2023/10/18 05:41:59;;;;;;;12.33;9.97;;;1.40;99.90;;;;;;5113475;27;20438;-80
2023/10/18 05:44:27;;;;;;;11.17;8.53;;;1.40;99.90;;;;;;5103997;27;20526;-81
2023/10/18 05:46:55;;;;;;;15.90;11.00;;;1.40;99.90;;;;;;5105261;27;20462;-80
2023/10/18 05:49:25;;;;;;;12.63;8.97;;;1.50;99.90;;;;;;5116561;27;20454;-78
2023/10/18 05:51:55;;;;;;;14.50;10.20;;;1.40;99.90;;;;;;5117322;27;20438;-79
2023/10/18 05:54:23;;;;;;;11.83;10.50;;;1.50;99.90;;;;;;5118190;27;21082;-79
2023/10/18 05:56:51;;;;;;;13.03;9.43;;;1.50;99.90;;;;;;5123409;27;20453;-79
2023/10/18 05:59:33;;;;;;;16.73;11.33;;;1.60;99.90;;;;;;5119682;27;20506;-79
2023/10/18 06:02:02;;;;;;;15.60;10.87;;;1.70;99.90;;;;;;5117295;27;20452;-79
2023/10/18 06:04:37;;;;;;;19.70;12.40;;;1.80;99.90;;;;;;5129824;27;20928;-79
2023/10/18 06:07:09;;;;;;;16.77;11.87;;;1.90;99.90;;;;;;5120123;27;20871;-80
2023/10/18 06:09:45;;;;;;;14.57;10.70;;;2.00;99.90;;;;;;5108678;27;20442;-79
2023/10/18 06:12:15;;;;;;;14.90;11.70;;;2.10;99.90;;;;;;5107872;27;20485;-79
2023/10/18 06:14:44;;;;;;;15.33;12.30;;;2.20;99.90;;;;;;5108041;27;20449;-80
2023/10/18 06:17:14;;;;;;;18.57;13.63;;;2.30;99.90;;;;;;5109537;27;20528;-79
2023/10/18 06:19:45;;;;;;;20.43;14.23;;;2.40;99.90;;;;;;5107386;27;20878;-80
2023/10/18 06:22:27;;;;;;;16.27;13.13;;;2.40;99.90;;;;;;5110088;27;20509;-79
2023/10/18 06:24:55;;;;;;;13.03;10.80;;;2.40;99.90;;;;;;5110190;27;20477;-79
2023/10/18 06:27:23;;;;;;;16.73;12.00;;;2.40;99.90;;;;;;5112921;27;20471;-80
2023/10/18 06:29:53;;;;;;;20.13;12.47;;;2.40;99.90;;;;;;5111815;27;20468;-80
2023/10/18 06:32:24;;;;;;;17.73;11.80;;;2.30;99.90;;;;;;5118194;27;20452;-80
2023/10/18 06:34:57;;;;;;;15.93;11.77;;;2.40;99.90;;;;;;5117215;27;20472;-80
2023/10/18 06:37:40;;;;;;;15.53;12.17;;;2.50;99.90;;;;;;5109317;27;20459;-80
2023/10/18 06:40:21;;;;;;;15.87;10.90;;;2.60;99.90;;;;;;5118026;27;20482;-80
2023/10/18 06:42:48;;;;;;;20.70;14.00;;;2.80;99.90;;;;;;5110518;27;21209;-80
2023/10/18 06:45:18;;;;;;;18.13;13.30;;;2.90;99.90;;;;;;5112448;27;20933;-80
2023/10/18 06:47:45;;;;;;;19.50;14.70;;;3.00;99.90;;;;;;5119158;27;20455;-80
2023/10/18 06:50:13;;;;;;;20.77;14.00;;;3.20;99.90;;;;;;5111730;27;20445;-80
2023/10/18 06:52:44;;;;;;;19.20;16.20;;;3.30;99.90;;;;;;5108151;27;20461;-80
2023/10/18 06:55:17;;;;;;;18.77;14.83;;;3.30;99.90;;;;;;5119931;27;20457;-80
2023/10/18 06:57:47;;;;;;;22.77;16.30;;;3.40;99.90;;;;;;5112933;27;20450;-80
2023/10/18 07:00:16;;;;;;;21.93;18.17;;;3.60;99.90;;;;;;5107685;27;20964;-80
2023/10/18 07:02:44;;;;;;;20.87;14.30;;;3.70;99.90;;;;;;5105319;27;20465;-80
2023/10/18 07:05:11;;;;;;;21.20;13.97;;;3.70;99.90;;;;;;5110334;27;20476;-80
2023/10/18 07:07:38;;;;;;;27.33;18.53;;;3.80;99.90;;;;;;5112714;27;20543;-80
2023/10/18 07:10:20;;;;;;;36.30;20.27;;;3.80;99.90;;;;;;5111826;27;20535;-77
2023/10/18 07:12:51;;;;;;;24.30;17.43;;;3.80;99.90;;;;;;5116728;27;20449;-77
2023/10/18 07:15:22;;;;;;;24.80;17.53;;;3.90;99.90;;;;;;5108194;27;20805;-77
2023/10/18 07:17:51;;;;;;;42.80;28.90;;;3.90;99.90;;;;;;5104296;27;20462;-77
2023/10/18 07:20:21;;;;;;;32.40;22.97;;;3.80;99.90;;;;;;5119565;27;20923;-77
2023/10/18 07:22:54;;;;;;;29.63;19.57;;;3.80;99.90;;;;;;5109336;27;20449;-77
2023/10/18 07:25:27;;;;;;;27.23;17.80;;;3.80;99.90;;;;;;5105542;27;20855;-77
2023/10/18 07:27:55;;;;;;;24.27;17.00;;;3.80;99.90;;;;;;5114146;27;20451;-77
2023/10/18 07:30:36;;;;;;;25.07;16.80;;;3.80;99.90;;;;;;5107808;27;20451;-77
2023/10/18 07:33:08;;;;;;;24.60;16.13;;;3.90;99.90;;;;;;5108652;27;20484;-77
2023/10/18 07:35:36;;;;;;;28.00;19.67;;;3.80;99.90;;;;;;5119231;27;20837;-77
2023/10/18 07:38:04;;;;;;;22.33;16.47;;;4.00;99.90;;;;;;5125024;27;20436;-77
2023/10/18 07:40:35;;;;;;;28.53;18.53;;;4.00;99.90;;;;;;5112849;27;20481;-78
2023/10/18 07:43:05;;;;;;;23.67;16.60;;;4.00;99.90;;;;;;5112566;27;20481;-79
2023/10/18 07:45:32;;;;;;;29.73;17.47;;;4.00;99.90;;;;;;5103243;27;20469;-78
2023/10/18 07:47:59;;;;;;;26.50;16.97;;;4.10;99.90;;;;;;5118255;27;20448;-78
2023/10/18 07:50:41;;;;;;;29.40;18.20;;;4.10;99.90;;;;;;5120790;27;20760;-78
2023/10/18 07:53:11;;;;;;;23.77;15.80;;;4.10;99.90;;;;;;5116243;27;20475;-79
2023/10/18 07:55:41;;;;;;;26.73;16.43;;;4.20;99.90;;;;;;5112602;27;20793;-78
2023/10/18 07:58:21;;;;;;;31.70;16.77;;;4.20;99.90;;;;;;5125105;27;20465;-79
2023/10/18 08:01:07;;;;;;;26.53;17.80;;;4.30;99.90;;;;;;5109165;27;20549;-78
2023/10/18 08:03:35;;;;;;;22.10;15.20;;;4.40;99.90;;;;;;5114995;27;20457;-78
2023/10/18 08:06:06;;;;;;;27.90;19.40;;;4.40;99.90;;;;;;5118237;27;21027;-78
2023/10/18 08:08:36;;;;;;;28.53;17.33;;;4.30;99.90;;;;;;5111818;27;20463;-78
2023/10/18 08:11:11;;;;;;;25.10;16.53;;;4.20;99.90;;;;;;5108330;27;21005;-78
2023/10/18 08:13:45;;;;;;;28.57;17.77;;;4.30;99.90;;;;;;5113595;27;20448;-77
2023/10/18 08:16:19;;;;;;;30.40;19.80;;;4.40;99.90;;;;;;5118448;27;20473;-78
2023/10/18 08:18:52;;;;;;;28.37;16.93;;;4.30;99.90;;;;;;5121931;27;20551;-78
2023/10/18 08:21:28;;;;;;;29.93;17.23;;;4.30;99.90;;;;;;5119331;27;20838;-78
2023/10/18 08:23:55;;;;;;;31.93;18.63;;;4.30;99.90;;;;;;5106488;27;20464;-78
2023/10/18 08:26:26;;;;;;;28.30;16.90;;;4.40;99.90;;;;;;5115233;27;20923;-79
2023/10/18 08:28:54;;;;;;;29.70;17.87;;;4.40;99.90;;;;;;5108347;27;20444;-77
2023/10/18 08:31:32;;;;;;;24.73;18.03;;;4.60;99.90;;;;;;5114604;27;20459;-78
2023/10/18 08:33:59;;;;;;;30.50;17.77;;;4.70;99.90;;;;;;5117200;27;20437;-78
2023/10/18 08:36:32;;;;;;;26.37;15.17;;;4.70;99.90;;;;;;5123354;27;20456;-77
2023/10/18 08:39:01;;;;;;;23.27;16.30;;;4.70;99.90;;;;;;5119074;27;20481;-78
2023/10/18 08:41:33;;;;;;;29.67;16.70;;;4.80;99.90;;;;;;5109345;27;20508;-78
2023/10/18 08:44:08;;;;;;;25.77;18.00;;;4.80;99.90;;;;;;5108825;27;20954;-78
2023/10/18 08:46:41;;;;;;;29.53;18.77;;;4.90;99.90;;;;;;5107911;27;20836;-78
2023/10/18 08:49:12;;;;;;;23.07;16.00;;;5.10;99.90;;;;;;5118410;27;20932;-78
2023/10/18 08:51:44;;;;;;;25.50;18.23;;;5.10;99.90;;;;;;5119757;27;20457;-78
2023/10/18 08:54:18;;;;;;;23.50;16.17;;;5.00;99.90;;;;;;5112418;27;20501;-78
2023/10/18 08:56:48;;;;;;;22.83;15.03;;;5.20;99.90;;;;;;5110358;27;20979;-77
2023/10/18 08:59:19;;;;;;;26.10;17.03;;;5.10;99.90;;;;;;5113040;27;20506;-78
2023/10/18 09:04:28;;;;;;;25.10;17.40;;;5.10;99.90;;;;;;5107120;27;21123;-77
2023/10/18 09:06:56;;;;;;;26.57;18.87;;;5.20;99.90;;;;;;5105004;27;20545;-78
2023/10/18 09:09:24;;;;;;;24.27;15.30;;;5.20;99.90;;;;;;5115580;27;20458;-77
2023/10/18 09:11:52;;;;;;;23.20;15.47;;;5.00;99.90;;;;;;5108368;27;21202;-77
2023/10/18 09:14:20;;;;;;;24.37;17.23;;;5.20;99.90;;;;;;5119549;27;20454;-77
2023/10/18 09:16:47;;;;;;;25.10;17.23;;;5.20;99.90;;;;;;5106740;27;20461;-78
2023/10/18 09:19:14;;;;;;;31.83;17.47;;;5.30;99.90;;;;;;5119549;27;20549;-78
2023/10/18 09:21:50;;;;;;;22.67;16.73;;;5.30;99.90;;;;;;5115297;27;20521;-78
2023/10/18 09:24:23;;;;;;;26.07;15.80;;;5.50;99.90;;;;;;5108609;27;20465;-77
2023/10/18 09:26:52;;;;;;;23.77;16.60;;;5.70;99.90;;;;;;5107329;27;20457;-78
2023/10/18 09:29:19;;;;;;;21.67;17.53;;;5.90;99.90;;;;;;5115038;27;20519;-78
2023/10/18 09:31:54;;;;;;;22.80;15.80;;;6.10;99.90;;;;;;5107411;27;20880;-78
2023/10/18 09:34:23;;;;;;;23.33;18.20;;;6.30;99.90;;;;;;5108581;27;20473;-78
2023/10/18 09:36:54;;;;;;;22.67;15.80;;;6.30;99.90;;;;;;5109918;27;20490;-78
2023/10/18 09:39:24;;;;;;;25.97;16.10;;;6.30;99.90;;;;;;5117278;27;20551;-78
2023/10/18 09:41:53;;;;;;;25.40;14.97;;;6.50;99.90;;;;;;5105423;27;20540;-79
2023/10/18 09:44:20;;;;;;;21.40;14.00;;;6.60;99.90;;;;;;5108521;27;20928;-79
2023/10/18 09:46:49;;;;;;;24.60;15.73;;;6.50;99.90;;;;;;5121932;27;20534;-79
2023/10/18 09:49:22;;;;;;;20.77;15.67;;;6.60;99.90;;;;;;5108827;27;20456;-79
2023/10/18 09:51:53;;;;;;;19.40;15.83;;;6.50;99.90;;;;;;5108561;27;20548;-79
2023/10/18 09:54:22;;;;;;;20.97;13.67;;;6.50;99.90;;;;;;5110195;27;20540;-79
2023/10/18 09:56:54;;;;;;;22.70;15.77;;;6.70;99.90;;;;;;5107308;27;20462;-79
2023/10/18 09:59:26;;;;;;;22.53;15.20;;;6.80;99.90;;;;;;5116976;27;20507;-79
2023/10/18 10:01:57;;;;;;;14.20;11.87;;;7.00;99.90;;;;;;5100546;27;20514;-78
2023/10/18 10:04:25;;;;;;;22.07;14.53;;;7.30;99.90;;;;;;5109606;27;20473;-79
2023/10/18 10:06:55;;;;;;;19.67;13.83;;;7.30;99.90;;;;;;5108571;27;20472;-79
2023/10/18 10:09:29;;;;;;;17.43;12.63;;;7.60;99.90;;;;;;5131838;27;20497;-79
2023/10/18 10:11:58;;;;;;;17.90;16.10;;;7.90;99.90;;;;;;5107686;27;20523;-79
2023/10/18 10:14:29;;;;;;;18.97;15.80;;;8.00;99.90;;;;;;5105736;27;20438;-79
2023/10/18 10:17:01;;;;;;;19.70;15.57;;;8.30;99.90;;;;;;5107643;27;20457;-79
2023/10/18 10:19:30;;;;;;;17.70;12.87;;;8.30;99.90;;;;;;5123369;27;20496;-79
2023/10/18 10:22:04;;;;;;;21.90;13.33;;;8.50;99.90;;;;;;5116361;27;20453;-79
2023/10/18 10:24:35;;;;;;;17.67;12.97;;;8.50;99.90;;;;;;5119216;27;20457;-79
2023/10/18 10:27:41;;;;;;;17.70;12.13;;;8.10;99.90;;;;;;5108957;27;20953;-79
2023/10/18 10:30:19;;;;;;;17.60;14.20;;;8.10;99.90;;;;;;5112229;27;20789;-79
2023/10/18 10:32:47;;;;;;;19.73;14.57;;;8.30;99.90;;;;;;5114373;27;20451;-79
2023/10/18 10:35:16;;;;;;;16.73;12.70;;;8.30;99.90;;;;;;5121336;27;20440;-80
2023/10/18 10:37:50;;;;;;;15.90;13.13;;;8.30;99.90;;;;;;5105428;27;20477;-79
2023/10/18 10:40:35;;;;;;;15.47;12.47;;;8.60;99.90;;;;;;5105527;27;20533;-79
2023/10/18 10:43:10;;;;;;;17.93;12.80;;;8.70;99.90;;;;;;5115940;27;21038;-79
2023/10/18 10:45:41;;;;;;;16.20;14.37;;;8.80;99.90;;;;;;5105663;27;20446;-80
2023/10/18 10:48:36;;;;;;;15.37;13.23;;;8.90;99.90;;;;;;5118718;27;21182;-79
2023/10/18 10:51:09;;;;;;;19.73;13.07;;;9.00;99.90;;;;;;5104257;27;20469;-79
2023/10/18 10:53:43;;;;;;;19.40;13.83;;;9.10;99.90;;;;;;5113658;27;20495;-79
2023/10/18 10:56:48;;;;;;;19.97;13.80;;;9.30;99.90;;;;;;5111709;27;20444;-79
2023/10/18 10:59:19;;;;;;;15.67;14.10;;;9.00;99.90;;;;;;5119464;27;20503;-79
2023/10/18 11:01:58;;;;;;;16.40;12.90;;;8.80;99.90;;;;;;5113604;27;20469;-79
2023/10/18 11:04:49;;;;;;;15.40;10.80;;;8.90;99.90;;;;;;5111411;27;20598;-79
2023/10/18 11:07:21;;;;;;;12.63;10.90;;;9.20;99.90;;;;;;5124606;27;20453;-79
2023/10/18 11:09:50;;;;;;;14.77;11.63;;;9.30;99.70;;;;;;5103572;27;20461;-79
2023/10/18 11:12:18;;;;;;;14.23;12.40;;;9.30;99.40;;;;;;5122284;27;20444;-79
2023/10/18 11:14:50;;;;;;;19.33;12.83;;;9.20;99.90;;;;;;5118318;27;20461;-79
2023/10/18 11:17:18;;;;;;;13.83;11.83;;;9.30;99.90;;;;;;5114855;27;20489;-79
2023/10/18 11:19:51;;;;;;;17.97;12.23;;;9.50;99.90;;;;;;5112823;27;20952;-79
2023/10/18 11:22:20;;;;;;;13.43;11.90;;;9.30;99.90;;;;;;5106526;27;20484;-79
2023/10/18 11:24:49;;;;;;;15.33;11.80;;;9.30;99.90;;;;;;5102723;27;20793;-79
2023/10/18 11:27:18;;;;;;;16.23;14.03;;;9.20;99.90;;;;;;5105536;27;20445;-79
2023/10/18 11:29:47;;;;;;;20.97;13.70;;;9.10;99.90;;;;;;5104526;27;20442;-79
2023/10/18 11:32:18;;;;;;;14.87;10.63;;;9.10;99.90;;;;;;5108591;27;20508;-78
2023/10/18 11:34:45;;;;;;;14.47;11.47;;;9.20;99.90;;;;;;5111951;27;21086;-78
2023/10/18 11:37:34;;;;;;;14.40;11.67;;;9.20;99.90;;;;;;5115695;27;20511;-78
2023/10/18 11:40:12;;;;;;;16.00;11.77;;;9.20;99.90;;;;;;5106042;27;20928;-78
2023/10/18 11:42:55;;;;;;;16.63;10.70;;;9.60;99.90;;;;;;5111471;27;20473;-79
2023/10/18 11:45:27;;;;;;;13.17;11.90;;;9.80;99.90;;;;;;5104790;27;20500;-79
2023/10/18 11:47:54;;;;;;;16.60;12.00;;;9.70;99.90;;;;;;5104802;27;20461;-79
2023/10/18 11:50:23;;;;;;;13.77;12.37;;;9.50;99.90;;;;;;5118838;27;20433;-80
2023/10/18 11:52:52;;;;;;;12.77;10.10;;;9.50;99.90;;;;;;5116614;27;20465;-79
2023/10/18 11:55:20;;;;;;;18.93;11.33;;;9.60;99.50;;;;;;5114666;27;20452;-80
2023/10/18 11:57:47;;;;;;;16.80;10.50;;;9.50;99.20;;;;;;5102931;27;20457;-79
2023/10/18 12:02:57;;;;;;;14.33;11.17;;;9.70;99.90;;;;;;5111643;27;20452;-79
2023/10/18 12:05:27;;;;;;;11.90;9.60;;;9.70;99.90;;;;;;5124273;27;20436;-80
2023/10/18 12:07:55;;;;;;;12.20;10.50;;;9.80;99.90;;;;;;5104927;27;20454;-80
2023/10/18 12:10:34;;;;;;;13.87;11.07;;;9.80;99.90;;;;;;5122007;27;20469;-80
2023/10/18 12:13:02;;;;;;;11.93;10.47;;;9.60;99.70;;;;;;5105907;27;20465;-79
2023/10/18 12:15:30;;;;;;;13.73;12.10;;;9.70;99.90;;;;;;5111975;27;20528;-79
2023/10/18 12:18:03;;;;;;;10.83;9.60;;;9.70;99.70;;;;;;5115867;27;21029;-80
2023/10/18 12:20:36;;;;;;;14.67;10.27;;;9.80;99.60;;;;;;5113406;27;20493;-79
2023/10/18 12:23:03;;;;;;;28.33;21.77;;;10.10;99.90;;;;;;5120512;27;20449;-79
2023/10/18 12:25:32;;;;;;;12.20;10.80;;;10.10;99.10;;;;;;5106020;27;20469;-80
2023/10/18 12:28:01;;;;;;;15.50;13.43;;;10.30;98.90;;;;;;5113924;27;20468;-79
2023/10/18 12:30:33;;;;;;;13.43;11.57;;;10.30;97.90;;;;;;5115943;27;20501;-79
2023/10/18 12:33:06;;;;;;;14.53;10.80;;;10.30;97.80;;;;;;5113243;27;21061;-79
2023/10/18 12:35:33;;;;;;;16.20;14.60;;;10.30;98.90;;;;;;5109546;27;20507;-79
2023/10/18 12:38:00;;;;;;;27.03;20.37;;;10.30;98.60;;;;;;5112177;27;20438;-78
2023/10/18 12:40:32;;;;;;;31.07;24.80;;;10.20;98.40;;;;;;5113294;27;20923;-79
2023/10/18 12:43:00;;;;;;;19.57;13.53;;;10.20;98.50;;;;;;5110782;27;20448;-78
2023/10/18 12:45:27;;;;;;;15.30;12.03;;;10.10;98.50;;;;;;5124086;27;20447;-78
2023/10/18 12:47:55;;;;;;;26.90;18.80;;;10.10;98.00;;;;;;5119869;27;20816;-78
2023/10/18 12:50:28;;;;;;;16.13;14.53;;;10.20;98.80;;;;;;5126488;27;20518;-79
2023/10/18 12:53:06;;;;;;;21.83;14.60;;;10.20;98.70;;;;;;5106728;27;20462;-79
2023/10/18 12:55:32;;;;;;;12.33;11.00;;;10.30;98.30;;;;;;5120901;27;20436;-78
2023/10/18 12:58:00;;;;;;;12.90;11.73;;;10.40;98.90;;;;;;5110909;27;20441;-79
2023/10/18 13:00:32;;;;;;;13.13;10.50;;;10.40;99.10;;;;;;5112305;27;21038;-79
2023/10/18 13:05:51;;;;;;;11.20;10.10;;;10.30;99.10;;;;;;5101733;27;20450;-78
2023/10/18 13:08:34;;;;;;;11.50;10.30;;;10.30;99.10;;;;;;5109990;27;20980;-79
2023/10/18 13:13:44;;;;;;;14.27;11.87;;;10.40;99.70;;;;;;5096418;27;20461;-79
2023/10/18 13:16:14;;;;;;;11.80;10.57;;;10.30;99.20;;;;;;5114996;27;20550;-79
2023/10/18 13:18:42;;;;;;;10.47;9.37;;;10.40;99.60;;;;;;5118776;27;20461;-79